Élőkép

Információk

Albatrosz Repülő Egyesület
8000 Székesfehérvár,
Radványi utca 6.

Adószám:
19092908-2-07

Bankszámla szám:
Budapest Bank
10102952-01361819-00000001

Telefon: +36 30 9598-897

Telephey: Börgönd repülőtér

Börgöndi repülõtér

LHBP METAR/TAF

[source: ADDS]
METAR
TAF LHBP 252300Z 2600/2624 VRB03KT CAVOK BECMG 2605/2607 16006KT BECMG 2609/2611 21011KT BECMG 2618/2620 VRB03KT TAF
TAF LHBP 252300Z 2600/2624 VRB03KT CAVOK BECMG 2605/2607 16006KT BECMG 2609/2611 21011KT BECMG 2618/2620 VRB03KT =
SR / SS: 03:40 / 17:51 UTC (Börgönd 2015-04-26)
Hungarian Chinese (Simplified) Croatian Czech English Finnish French German Hebrew Italian Japanese Polish Portuguese Romanian Russian Serbian Slovak Slovenian Spanish

Belépés tagoknak